Time;durP1;ratioP1;P1;durP2;ratioP2;P2;SDS_P1;SDS_P2;PMS_P1;PMS_P2;Temp;Humidity;BMP_temperature;BMP_pressure;BME280_temperature;BME280_humidity;BME280_pressure;Samples;Min_cycle;Max_cycle;Signal;HPM_P1;HPM_P2
2022/04/19 00:02:52;;;;;;;4.65;2.60;;;;;;;6.37;50.20;99748.13;10337600;28;20054;-82
2022/04/19 00:07:55;;;;;;;5.03;2.60;;;;;;;6.28;50.52;99750.22;10339360;28;20093;-81
2022/04/19 00:12:58;;;;;;;4.18;2.50;;;;;;;6.20;50.75;99738.47;10334122;28;20054;-82
2022/04/19 00:18:02;;;;;;;5.68;2.50;;;;;;;6.08;50.97;99739.84;10333267;28;20050;-81
2022/04/19 00:23:05;;;;;;;5.28;2.33;;;;;;;5.96;50.78;99736.97;10335391;28;20049;-81
2022/04/19 00:28:07;;;;;;;3.67;2.30;;;;;;;5.90;50.98;99732.88;10335504;28;20062;-81
2022/04/19 00:33:09;;;;;;;5.90;2.53;;;;;;;5.83;51.28;99735.81;10333849;28;20562;-81
2022/04/19 00:38:11;;;;;;;4.53;2.60;;;;;;;5.78;51.31;99738.59;10333923;28;20045;-81
2022/04/19 00:43:18;;;;;;;5.50;3.03;;;;;;;5.75;51.78;99732.69;10334932;28;20062;-82
2022/04/19 00:48:21;;;;;;;7.47;2.90;;;;;;;5.70;51.96;99727.69;10334786;28;20061;-81
2022/04/19 00:53:26;;;;;;;5.55;2.65;;;;;;;5.68;52.02;99720.88;10335706;28;20061;-82
2022/04/19 00:58:33;;;;;;;5.47;2.70;;;;;;;5.66;51.91;99718.38;10337654;28;20050;-81
2022/04/19 01:03:37;;;;;;;5.30;2.72;;;;;;;5.57;52.17;99713.59;10331313;28;20112;-81
2022/04/19 01:08:39;;;;;;;5.18;2.70;;;;;;;5.45;52.41;99716.72;10334435;28;20057;-81
2022/04/19 01:13:42;;;;;;;6.90;2.60;;;;;;;5.29;52.91;99713.88;10331649;28;20062;-81
2022/04/19 01:18:43;;;;;;;4.28;2.50;;;;;;;5.19;52.93;99710.00;10331916;28;20096;-81
2022/04/19 01:23:45;;;;;;;3.72;2.10;;;;;;;5.17;53.00;99718.72;10332900;28;20050;-81
2022/04/19 01:28:47;;;;;;;5.78;2.88;;;;;;;5.20;52.87;99711.69;10333424;28;20064;-81
2022/04/19 01:33:49;;;;;;;4.75;2.53;;;;;;;5.09;53.12;99705.25;10333923;28;20086;-81
2022/04/19 01:38:51;;;;;;;8.07;2.75;;;;;;;5.08;53.29;99706.16;10333363;28;20050;-81
2022/04/19 01:43:53;;;;;;;4.50;2.63;;;;;;;4.85;54.15;99706.25;10331702;28;20058;-81
2022/04/19 01:48:57;;;;;;;6.40;2.90;;;;;;;4.89;54.07;99710.41;10332724;28;20137;-81
2022/04/19 01:53:59;;;;;;;4.53;2.40;;;;;;;4.87;53.94;99701.84;10333608;28;20060;-82
2022/04/19 01:59:01;;;;;;;15.60;2.90;;;;;;;4.85;53.85;99693.28;10334930;28;20050;-82
2022/04/19 02:04:03;;;;;;;6.78;2.80;;;;;;;4.83;53.91;99695.09;10340175;28;20205;-81
2022/04/19 02:09:05;;;;;;;6.03;2.50;;;;;;;4.78;54.29;99684.91;10336513;28;20112;-81
2022/04/19 02:14:06;;;;;;;4.63;2.50;;;;;;;4.74;54.27;99688.53;10336166;28;20117;-81
2022/04/19 02:19:09;;;;;;;4.60;2.42;;;;;;;4.65;54.25;99679.41;10335288;28;20045;-82
2022/04/19 02:24:11;;;;;;;4.30;2.67;;;;;;;4.62;54.49;99683.84;10338885;28;21023;-81
2022/04/19 02:29:15;;;;;;;4.03;2.45;;;;;;;4.50;54.68;99687.75;10334976;28;20062;-82
2022/04/19 02:34:18;;;;;;;4.97;2.60;;;;;;;4.35;54.87;99693.53;10340092;28;20058;-82
2022/04/19 02:39:20;;;;;;;6.25;2.97;;;;;;;4.20;54.99;99685.50;10336925;28;20054;-81
2022/04/19 02:44:22;;;;;;;4.22;2.75;;;;;;;4.00;55.17;99688.84;10338444;28;20054;-81
2022/04/19 02:49:23;;;;;;;5.18;2.72;;;;;;;3.92;55.61;99685.69;10335657;28;20053;-81
2022/04/19 02:54:25;;;;;;;6.78;2.47;;;;;;;4.01;55.69;99682.75;10333844;28;20061;-81
2022/04/19 02:59:27;;;;;;;4.90;2.47;;;;;;;4.09;55.40;99685.09;10338653;28;20046;-81
2022/04/19 03:04:29;;;;;;;4.22;2.40;;;;;;;4.05;55.50;99684.31;10335389;28;20054;-81
2022/04/19 03:09:31;;;;;;;6.30;2.97;;;;;;;3.70;55.23;99687.34;10348073;28;20050;-81
2022/04/19 03:14:35;;;;;;;4.82;2.80;;;;;;;3.59;56.29;99684.28;10333944;28;20515;-81
2022/04/19 03:19:37;;;;;;;4.28;2.60;;;;;;;3.72;56.22;99682.97;10341092;28;20129;-82
2022/04/19 03:29:59;;;;;;;4.25;2.58;;;;;;;3.64;56.40;99683.22;10337759;28;20061;-81
2022/04/19 03:35:01;;;;;;;3.92;2.42;;;;;;;3.53;56.35;99679.31;10338731;28;20053;-81
2022/04/19 03:40:05;;;;;;;5.50;2.90;;;;;;;3.57;56.49;99678.31;10337902;28;20049;-81
2022/04/19 03:45:10;;;;;;;4.30;2.80;;;;;;;3.65;56.70;99681.47;10339126;28;20820;-81
2022/04/19 03:50:12;;;;;;;5.20;2.65;;;;;;;3.59;56.29;99689.44;10340042;28;20049;-82
2022/04/19 03:55:14;;;;;;;6.60;2.97;;;;;;;3.24;56.55;99692.41;10337555;28;20084;-81
2022/04/19 04:00:16;;;;;;;5.20;2.72;;;;;;;3.22;56.95;99691.59;10343850;28;20050;-81
2022/04/19 04:05:17;;;;;;;5.32;2.90;;;;;;;2.99;57.33;99693.22;10337203;28;20099;-81
2022/04/19 04:10:19;;;;;;;4.90;3.10;;;;;;;3.11;57.22;99688.56;10339428;28;20046;-81
2022/04/19 04:15:21;;;;;;;4.32;2.45;;;;;;;3.16;57.00;99690.09;10335395;28;20542;-81
2022/04/19 04:20:23;;;;;;;5.05;2.90;;;;;;;3.21;57.05;99685.63;10340277;28;20051;-82
2022/04/19 04:25:25;;;;;;;4.80;2.60;;;;;;;3.21;57.02;99692.53;10337849;28;20054;-82
2022/04/19 04:30:26;;;;;;;4.35;2.70;;;;;;;3.25;56.74;99689.78;10336328;28;20428;-81
2022/04/19 04:35:28;;;;;;;4.28;2.97;;;;;;;3.29;57.05;99693.09;10339447;28;20508;-81
2022/04/19 04:40:30;;;;;;;6.28;2.80;;;;;;;3.34;57.03;99696.34;10339387;28;20061;-81
2022/04/19 04:45:32;;;;;;;4.00;2.80;;;;;;;3.34;56.95;99692.03;10340727;28;20057;-82
2022/04/19 04:50:34;;;;;;;4.18;2.72;;;;;;;3.37;56.93;99704.03;10334462;28;20423;-82
2022/04/19 04:55:35;;;;;;;8.88;3.10;;;;;;;3.46;56.80;99693.34;10337393;28;20054;-82
2022/04/19 05:00:37;;;;;;;4.63;2.53;;;;;;;3.49;56.58;99699.28;10335244;28;20046;-81
2022/04/19 05:05:39;;;;;;;5.93;2.80;;;;;;;3.59;56.43;99698.06;10335414;28;20054;-81
2022/04/19 05:10:41;;;;;;;5.28;2.95;;;;;;;3.62;56.53;99694.53;10335215;28;20050;-81
2022/04/19 05:15:43;;;;;;;4.53;2.70;;;;;;;3.84;56.08;99688.53;10334381;28;20105;-81
2022/04/19 05:20:45;;;;;;;4.75;2.67;;;;;;;3.99;55.94;99697.50;10332051;28;20384;-82
2022/04/19 05:25:47;;;;;;;4.05;2.60;;;;;;;4.11;55.61;99703.97;10335963;28;20097;-81
2022/04/19 05:30:49;;;;;;;5.57;3.30;;;;;;;4.07;55.61;99703.22;10332238;28;20058;-81
2022/04/19 05:35:51;;;;;;;4.88;2.88;;;;;;;4.13;55.65;99702.19;10333032;28;20420;-81
2022/04/19 05:40:53;;;;;;;5.43;3.05;;;;;;;4.12;55.68;99703.91;10334649;28;20049;-82
2022/04/19 05:45:57;;;;;;;4.38;3.00;;;;;;;4.29;55.81;99706.69;10331971;28;20472;-82
2022/04/19 05:50:59;;;;;;;5.30;2.90;;;;;;;4.30;55.53;99707.56;10332819;28;20478;-81
2022/04/19 05:56:01;;;;;;;5.90;3.15;;;;;;;4.36;55.40;99703.00;10336285;28;20054;-82
2022/04/19 06:01:03;;;;;;;5.45;2.92;;;;;;;4.41;55.62;99706.22;10333564;28;20052;-82
2022/04/19 06:06:06;;;;;;;5.18;2.75;;;;;;;4.55;55.64;99706.56;10335765;28;20054;-82
2022/04/19 06:11:11;;;;;;;5.18;3.10;;;;;;;4.69;55.46;99709.47;10334478;28;20064;-82
2022/04/19 06:16:13;;;;;;;10.60;3.13;;;;;;;4.85;55.21;99701.91;10335134;28;20145;-82
2022/04/19 06:21:15;;;;;;;4.93;2.97;;;;;;;5.04;54.71;99694.25;10335598;28;20107;-82
2022/04/19 06:26:18;;;;;;;5.45;3.60;;;;;;;5.23;54.50;99696.00;10339920;28;20125;-82
2022/04/19 06:31:20;;;;;;;5.32;3.30;;;;;;;5.38;54.24;99692.78;10332027;28;20483;-82
2022/04/19 06:36:25;;;;;;;5.38;3.38;;;;;;;5.45;54.22;99694.19;10334652;28;20050;-82
2022/04/19 06:41:27;;;;;;;6.15;3.00;;;;;;;5.55;54.36;99694.66;10336594;28;20056;-82
2022/04/19 06:46:29;;;;;;;5.30;3.35;;;;;;;5.79;53.94;99690.13;10337814;28;20058;-81
2022/04/19 06:51:30;;;;;;;5.18;3.40;;;;;;;6.12;53.62;99683.44;10350529;28;20054;-82
2022/04/19 06:56:35;;;;;;;6.63;3.55;;;;;;;6.33;53.17;99690.25;10345041;28;20061;-82
2022/04/19 07:01:42;;;;;;;7.28;3.65;;;;;;;6.59;52.57;99687.31;10333536;28;20051;-82
2022/04/19 07:06:44;;;;;;;6.88;3.88;;;;;;;6.71;52.06;99686.72;10322962;28;20050;-81
2022/04/19 07:11:46;;;;;;;7.72;3.97;;;;;;;6.95;51.57;99688.16;10331876;28;20053;-82
2022/04/19 07:16:48;;;;;;;6.55;3.65;;;;;;;7.13;51.34;99691.59;10329870;28;20057;-82
2022/04/19 07:27:11;;;;;;;;;;;;;;;7.35;49.88;99692.19;10330964;28;20082;-82
2022/04/19 07:32:13;;;;;;;;;;;;;;;7.62;49.02;99683.00;10332217;28;20852;-82
2022/04/19 07:37:15;;;;;;;;;;;;;;;8.14;47.14;99678.50;10328577;28;19925;-81
2022/04/19 07:42:16;;;;;;;6.97;3.70;;;;;;;9.67;46.19;99680.19;10333305;28;19932;-82
2022/04/19 07:47:18;;;;;;;5.53;3.55;;;;;;;10.86;43.21;99667.41;10334859;28;21021;-82
2022/04/19 07:52:20;;;;;;;9.70;4.05;;;;;;;11.67;41.83;99669.78;10330936;28;20060;-82
2022/04/19 07:57:22;;;;;;;8.38;4.10;;;;;;;12.32;40.23;99657.34;10332265;28;20054;-82
2022/04/19 08:02:24;;;;;;;8.82;3.95;;;;;;;12.62;39.53;99649.09;10336988;28;20487;-81
2022/04/19 08:07:26;;;;;;;10.35;4.18;;;;;;;13.41;37.60;99641.38;10341041;28;20073;-82
2022/04/19 08:12:28;;;;;;;6.97;4.10;;;;;;;14.27;36.31;99640.69;10334604;28;20046;-82
2022/04/19 08:17:37;;;;;;;7.07;3.92;;;;;;;14.40;34.18;99627.41;10334551;28;20062;-83
2022/04/19 08:22:39;;;;;;;8.43;4.20;;;;;;;14.55;34.02;99637.56;10330735;28;20049;-83
2022/04/19 08:27:45;;;;;;;9.15;4.80;;;;;;;14.66;34.64;99635.84;10326953;28;20066;-83
2022/04/19 08:32:47;;;;;;;10.95;4.65;;;;;;;15.03;33.56;99639.78;10334616;28;20137;-83
2022/04/19 08:37:50;;;;;;;11.25;4.60;;;;;;;15.40;32.33;99633.97;10335405;28;20447;-83
2022/04/19 08:43:00;;;;;;;11.88;4.65;;;;;;;16.02;31.18;99631.25;10337898;28;20055;-83
2022/04/19 08:48:07;;;;;;;7.60;4.28;;;;;;;16.01;31.35;99623.47;10335037;28;20099;-83
2022/04/19 08:58:30;;;;;;;9.82;5.18;;;;;;;16.24;30.78;99619.69;10334830;28;20058;-82
2022/04/19 09:03:33;;;;;;;8.68;4.93;;;;;;;16.43;30.21;99616.22;10328794;28;20062;-81
2022/04/19 09:08:37;;;;;;;11.70;5.15;;;;;;;16.67;29.98;99606.16;10333183;28;20073;-82
2022/04/19 09:13:41;;;;;;;12.43;4.85;;;;;;;16.94;29.55;99598.38;10332486;28;20485;-81
2022/04/19 09:18:46;;;;;;;9.23;5.07;;;;;;;16.62;30.23;99598.66;10325520;28;20124;-82
2022/04/19 09:23:56;;;;;;;9.80;4.75;;;;;;;16.92;29.18;99595.03;10331479;28;20050;-82
2022/04/19 09:29:21;;;;;;;7.70;4.65;;;;;;;17.31;27.72;99591.38;10317723;28;20685;-82
2022/04/19 09:34:30;;;;;;;8.60;4.90;;;;;;;17.72;29.14;99590.19;10317080;28;20049;-81
2022/04/19 09:40:17;;;;;;;8.32;5.20;;;;;;;17.97;27.00;99578.09;10313898;28;20050;-81
2022/04/19 09:45:23;;;;;;;7.70;4.47;;;;;;;18.15;27.41;99574.53;10318424;28;20054;-81
2022/04/19 09:50:27;;;;;;;8.93;5.35;;;;;;;17.62;27.00;99569.06;10327839;28;20431;-81
2022/04/19 09:55:29;;;;;;;9.60;6.00;;;;;;;17.79;27.77;99565.63;10323397;28;20507;-80
2022/04/19 10:00:32;;;;;;;9.82;5.28;;;;;;;18.11;28.07;99572.31;10320258;28;20144;-81
2022/04/19 10:10:58;;;;;;;9.82;6.10;;;;;;;18.12;27.14;99550.13;10323530;28;20607;-81
2022/04/19 10:16:04;;;;;;;7.90;5.78;;;;;;;17.94;26.81;99544.81;10321023;28;20712;-81
2022/04/19 10:21:09;;;;;;;9.38;5.80;;;;;;;18.15;25.80;99542.75;10316033;28;20072;-81
2022/04/19 10:26:14;;;;;;;9.70;6.30;;;;;;;18.14;25.43;99543.72;10318561;28;20413;-81
2022/04/19 10:31:32;;;;;;;9.57;5.57;;;;;;;17.87;24.79;99532.34;10330674;28;20577;-81
2022/04/19 10:36:39;;;;;;;12.57;5.80;;;;;;;17.77;26.00;99533.22;10320962;28;20058;-81
2022/04/19 10:41:47;;;;;;;7.68;6.05;;;;;;;18.01;26.25;99531.84;10326269;28;20065;-81
2022/04/19 10:47:12;;;;;;;10.13;6.40;;;;;;;17.92;26.91;99522.13;10318383;28;20058;-81
2022/04/19 10:52:36;;;;;;;9.25;6.22;;;;;;;17.55;26.05;99516.88;10325871;28;20057;-81
2022/04/19 11:03:20;;;;;;;7.75;5.95;;;;;;;17.29;26.96;99510.56;10318360;28;20045;-82
2022/04/19 11:08:37;;;;;;;9.43;5.95;;;;;;;17.39;27.59;99512.22;10327277;28;20058;-82
2022/04/19 11:13:42;;;;;;;10.15;6.05;;;;;;;17.42;25.34;99516.41;10325937;28;20060;-82
2022/04/19 11:18:44;;;;;;;10.38;6.40;;;;;;;17.13;25.81;99510.31;10320397;28;20061;-81
2022/04/19 11:24:03;;;;;;;9.47;5.50;;;;;;;17.25;24.88;99509.19;10325290;28;20536;-82
2022/04/19 11:29:11;;;;;;;7.07;5.20;;;;;;;17.45;24.81;99503.72;10319674;28;20061;-82
2022/04/19 11:34:16;;;;;;;8.40;5.20;;;;;;;17.68;25.20;99489.16;10327209;28;20065;-82
2022/04/19 11:46:44;;;;;;;8.02;5.50;;;;;;;17.66;24.78;99485.81;10329565;28;20062;-81
2022/04/19 11:50:03;;;;;;;8.05;5.53;;;;;;;17.87;25.12;99487.38;10321829;28;20058;-81
2022/04/19 11:55:05;;;;;;;9.23;4.25;;;;;;;17.83;25.66;99477.06;10327146;28;20061;-81
2022/04/19 12:00:08;;;;;;;7.00;4.93;;;;;;;17.89;24.66;99486.25;10330796;28;20160;-82
2022/04/19 12:05:26;;;;;;;8.68;5.00;;;;;;;17.63;24.77;99486.09;10340967;28;20058;-81
2022/04/19 12:10:31;;;;;;;7.10;4.80;;;;;;;17.85;24.06;99474.28;10329800;28;21015;-82
2022/04/19 12:15:39;;;;;;;6.30;3.90;;;;;;;18.07;24.36;99467.72;10328305;28;20060;-81
2022/04/19 12:20:45;;;;;;;8.95;4.22;;;;;;;18.02;24.66;99464.69;10327918;28;20053;-81
2022/04/19 12:26:03;;;;;;;6.82;4.38;;;;;;;17.98;23.53;99471.25;10330590;28;20060;-82
2022/04/19 12:31:05;;;;;;;5.88;4.10;;;;;;;17.88;24.16;99463.41;10327707;28;20443;-81
2022/04/19 12:36:14;;;;;;;7.45;3.90;;;;;;;18.07;23.28;99444.75;10325175;28;20457;-82
2022/04/19 12:41:19;;;;;;;5.45;3.72;;;;;;;17.99;24.27;99454.44;10330271;28;20054;-82
2022/04/19 12:46:22;;;;;;;6.18;3.55;;;;;;;18.09;24.54;99445.44;10326141;28;20050;-82
2022/04/19 12:51:27;;;;;;;5.32;3.40;;;;;;;18.06;23.10;99435.13;10331479;28;20061;-82
2022/04/19 12:56:35;;;;;;;6.43;3.53;;;;;;;18.36;23.03;99436.63;10325587;28;20538;-81
2022/04/19 13:01:38;;;;;;;6.35;2.90;;;;;;;18.33;23.38;99427.16;10332682;28;20073;-82
2022/04/19 13:17:42;;;;;;;6.18;2.85;;;;;;;18.32;24.49;99417.53;10278671;28;20461;-82
2022/04/19 13:22:44;;;;;;;5.22;2.63;;;;;;;18.41;24.80;99411.34;10318469;28;20515;-82
2022/04/19 13:27:49;;;;;;;6.28;3.08;;;;;;;18.59;23.68;99408.63;10326666;28;20405;-81
2022/04/19 13:32:50;;;;;;;6.03;2.60;;;;;;;18.77;25.17;99406.78;10325148;28;20070;-81
2022/04/19 13:43:12;;;;;;;3.60;2.20;;;;;;;18.98;23.80;99387.84;10327893;28;20682;-81
2022/04/19 13:48:14;;;;;;;3.50;2.10;;;;;;;19.04;23.66;99379.28;10327052;28;20061;-81
2022/04/19 13:53:16;;;;;;;5.35;2.60;;;;;;;18.86;23.32;99375.88;10329990;28;20416;-81
2022/04/19 13:58:18;;;;;;;4.25;2.40;;;;;;;19.00;23.79;99375.28;10326910;28;20061;-81
2022/04/19 14:03:20;;;;;;;8.50;2.33;;;;;;;18.90;24.46;99372.75;10333231;28;20060;-82
2022/04/19 14:08:29;;;;;;;4.00;1.92;;;;;;;18.87;26.54;99374.91;10331746;28;20054;-83
2022/04/19 14:13:32;;;;;;;3.78;2.17;;;;;;;18.73;26.34;99375.47;10330231;28;20049;-83
2022/04/19 14:18:33;;;;;;;4.95;2.08;;;;;;;18.90;25.01;99386.00;10321876;28;20053;-83
2022/04/19 14:23:35;;;;;;;4.30;1.65;;;;;;;18.95;24.95;99380.22;10328620;28;20050;-81
2022/04/19 14:33:58;;;;;;;3.25;2.15;;;;;;;19.00;26.00;99378.75;10323996;28;21063;-81
2022/04/19 14:39:00;;;;;;;3.55;2.10;;;;;;;18.82;26.09;99379.81;10341372;28;20085;-81
2022/04/19 14:44:02;;;;;;;3.55;2.15;;;;;;;18.92;27.45;99380.53;10327299;28;20057;-81
2022/04/19 14:49:04;;;;;;;3.25;2.00;;;;;;;19.03;26.13;99380.31;10329337;28;20468;-81
2022/04/19 14:54:06;;;;;;;3.50;2.10;;;;;;;18.86;25.56;99376.69;10327572;28;20050;-81
2022/04/19 14:59:08;;;;;;;3.78;2.10;;;;;;;19.16;26.55;99362.13;10328140;28;20069;-81
2022/04/19 15:04:10;;;;;;;5.22;1.83;;;;;;;19.27;26.49;99367.97;10328525;28;20615;-81
2022/04/19 15:09:18;;;;;;;3.40;1.90;;;;;;;19.12;25.73;99361.63;10329466;28;20069;-81
2022/04/19 15:14:20;;;;;;;2.95;1.80;;;;;;;19.20;25.44;99359.00;10338704;28;20061;-81
2022/04/19 15:19:22;;;;;;;2.95;1.70;;;;;;;19.18;26.14;99358.31;10334844;28;20065;-81
2022/04/19 15:24:24;;;;;;;2.47;1.50;;;;;;;19.08;25.77;99354.97;10338309;28;20100;-81
2022/04/19 15:29:29;;;;;;;5.05;1.60;;;;;;;19.07;25.76;99357.78;10324110;28;20062;-81
2022/04/19 15:34:31;;;;;;;3.42;1.60;;;;;;;18.96;25.12;99350.06;10334103;28;20085;-81
2022/04/19 15:39:33;;;;;;;2.85;1.50;;;;;;;18.94;25.91;99349.41;10323634;28;20065;-81
2022/04/19 15:44:37;;;;;;;5.95;1.90;;;;;;;19.15;28.49;99348.06;10333022;28;20050;-81
2022/04/19 15:49:42;;;;;;;3.40;1.50;;;;;;;19.31;26.98;99356.06;10334495;28;20054;-80
2022/04/19 15:54:45;;;;;;;2.80;1.50;;;;;;;19.11;25.97;99359.97;10334488;28;20068;-81
2022/04/19 15:59:52;;;;;;;3.38;1.52;;;;;;;19.04;25.78;99348.34;10339186;28;20056;-81
2022/04/19 16:04:57;;;;;;;3.33;1.55;;;;;;;18.95;27.92;99349.25;10324592;28;20108;-81
2022/04/19 16:09:58;;;;;;;3.65;1.70;;;;;;;19.02;27.58;99345.00;10333096;28;20053;-81
2022/04/19 16:15:00;;;;;;;4.53;1.50;;;;;;;18.91;27.14;99350.53;10322596;28;20069;-81
2022/04/19 16:25:28;;;;;;;4.13;1.40;;;;;;;18.63;27.55;99352.56;10330830;28;20100;-81
2022/04/19 16:30:32;;;;;;;3.47;1.58;;;;;;;18.76;27.16;99356.59;10338526;28;20065;-81
2022/04/19 16:35:36;;;;;;;4.95;1.60;;;;;;;18.79;28.42;99364.25;10331158;28;20061;-82
2022/04/19 16:40:39;;;;;;;2.75;1.50;;;;;;;18.54;29.13;99365.91;10324130;28;20053;-82
2022/04/19 16:45:43;;;;;;;5.75;1.30;;;;;;;18.53;28.53;99366.88;10331222;28;20804;-77
2022/04/19 16:50:45;;;;;;;2.80;1.30;;;;;;;18.28;28.77;99360.59;10321389;28;20046;-77
2022/04/19 16:55:47;;;;;;;4.50;1.40;;;;;;;18.18;28.68;99356.38;10322221;28;20050;-77
2022/04/19 17:00:49;;;;;;;4.50;1.23;;;;;;;18.02;29.44;99361.50;10319548;28;20050;-77
2022/04/19 17:05:51;;;;;;;5.70;1.40;;;;;;;17.89;29.01;99366.34;10316295;28;20054;-78
2022/04/19 17:10:53;;;;;;;3.08;1.17;;;;;;;17.78;29.33;99367.41;10310357;28;20066;-77
2022/04/19 17:15:56;;;;;;;2.72;1.30;;;;;;;17.56;29.40;99371.34;10336004;28;20060;-78
2022/04/19 17:20:58;;;;;;;3.03;1.30;;;;;;;17.21;28.07;99378.31;10323500;28;20046;-78
2022/04/19 17:26:01;;;;;;;3.33;1.27;;;;;;;17.04;27.44;99390.47;10326068;28;20512;-76
2022/04/19 17:31:04;;;;;;;3.53;1.30;;;;;;;16.98;28.12;99393.69;10329159;28;20510;-78
2022/04/19 17:36:07;;;;;;;3.97;1.10;;;;;;;16.90;28.30;99398.88;10326664;28;20540;-78
2022/04/19 17:41:11;;;;;;;2.03;1.10;;;;;;;16.77;28.33;99411.59;10311534;28;20060;-78
2022/04/19 17:46:13;;;;;;;2.15;1.15;;;;;;;16.59;28.18;99418.56;10321731;28;20144;-78
2022/04/19 17:56:40;;;;;;;4.43;1.20;;;;;;;16.09;29.16;99431.06;10314910;28;20049;-76
2022/04/19 18:01:43;;;;;;;4.22;1.10;;;;;;;15.87;29.04;99441.88;10316511;28;20795;-77
2022/04/19 18:06:46;;;;;;;2.20;1.20;;;;;;;15.64;28.82;99451.81;10322464;28;20381;-77
2022/04/19 18:11:48;;;;;;;3.08;1.40;;;;;;;15.37;29.19;99459.47;10319847;28;20046;-77
2022/04/19 18:16:50;;;;;;;3.15;1.10;;;;;;;15.26;29.00;99470.97;10320591;28;20422;-77
2022/04/19 18:27:12;;;;;;;;;;;;;;;14.62;29.90;99493.16;10311352;28;20057;-77
2022/04/19 18:32:14;;;;;;;3.60;1.40;;;;;;;14.74;30.10;99497.41;10319310;28;20005;-76
2022/04/19 18:37:16;;;;;;;3.70;1.30;;;;;;;14.66;30.08;99507.72;10316764;28;20061;-76
2022/04/19 18:42:19;;;;;;;2.08;1.30;;;;;;;14.57;31.00;99514.59;10309160;28;20046;-76
2022/04/19 18:47:21;;;;;;;5.45;1.50;;;;;;;14.44;30.97;99520.97;10311701;28;20053;-76
2022/04/19 18:52:24;;;;;;;2.42;1.55;;;;;;;14.23;31.27;99525.34;10315928;28;20148;-77
2022/04/19 18:57:26;;;;;;;5.43;1.60;;;;;;;14.06;31.32;99537.25;10319489;28;20056;-78
2022/04/19 19:02:29;;;;;;;5.15;1.60;;;;;;;13.96;31.80;99546.81;10321342;28;20042;-76
2022/04/19 19:07:31;;;;;;;14.35;1.67;;;;;;;13.78;31.80;99553.50;10325432;28;20064;-77
2022/04/19 19:12:33;;;;;;;4.05;1.50;;;;;;;13.68;31.81;99565.69;10324420;28;20058;-77
2022/04/19 19:17:35;;;;;;;5.47;1.70;;;;;;;13.62;32.33;99579.31;10319025;28;20221;-76
2022/04/19 19:22:37;;;;;;;2.85;1.50;;;;;;;13.45;32.32;99588.53;10316505;28;20927;-76
2022/04/19 19:27:39;;;;;;;4.68;2.50;;;;;;;13.43;32.45;99585.16;10315682;28;20290;-76
2022/04/19 19:32:42;;;;;;;6.03;3.63;;;;;;;13.32;32.69;99598.25;10323698;28;20054;-75
2022/04/19 19:37:44;;;;;;;4.65;2.90;;;;;;;13.24;33.51;99607.66;10317589;28;20054;-76
2022/04/19 19:42:45;;;;;;;3.72;2.40;;;;;;;13.12;33.45;99622.56;10322292;28;20049;-75
2022/04/19 19:47:47;;;;;;;5.28;2.20;;;;;;;12.98;33.73;99627.16;10331234;28;20094;-76
2022/04/19 19:52:49;;;;;;;6.43;1.63;;;;;;;12.79;34.28;99636.41;10333939;28;20108;-75
2022/04/19 19:57:51;;;;;;;2.83;1.48;;;;;;;12.57;33.44;99641.53;10323024;28;20050;-76
2022/04/19 20:02:53;;;;;;;5.90;1.60;;;;;;;12.47;33.25;99651.03;10329830;28;20047;-76
2022/04/19 20:07:55;;;;;;;3.42;1.40;;;;;;;12.34;33.59;99665.94;10331957;28;20058;-76
2022/04/19 20:12:57;;;;;;;2.47;1.50;;;;;;;12.27;33.65;99685.66;10337547;28;20137;-76
2022/04/19 20:17:58;;;;;;;2.42;1.33;;;;;;;12.32;34.29;99695.84;10329783;28;20053;-76
2022/04/19 20:23:00;;;;;;;2.85;1.60;;;;;;;12.02;34.35;99696.19;10335710;28;20050;-76
2022/04/19 20:28:02;;;;;;;3.22;1.70;;;;;;;11.84;33.89;99707.94;10333003;28;20061;-76
2022/04/19 20:33:04;;;;;;;4.10;1.88;;;;;;;11.74;33.78;99709.50;10333146;28;20089;-76
2022/04/19 20:38:06;;;;;;;4.13;1.70;;;;;;;11.68;33.99;99720.41;10331674;28;20718;-76
2022/04/19 20:43:08;;;;;;;4.00;1.92;;;;;;;11.54;33.53;99725.72;10331062;28;20101;-75
2022/04/19 20:53:31;;;;;;;5.97;1.75;;;;;;;11.23;33.41;99738.19;10326534;28;20147;-76
2022/04/19 20:58:32;;;;;;;6.05;1.88;;;;;;;11.09;33.53;99737.44;10332210;28;20057;-76
2022/04/19 21:03:36;;;;;;;5.00;1.80;;;;;;;11.02;33.51;99744.81;10328967;28;20065;-76
2022/04/19 21:08:37;;;;;;;4.43;1.65;;;;;;;11.00;33.70;99743.22;10333676;28;20053;-76
2022/04/19 21:13:39;;;;;;;7.45;1.90;;;;;;;10.88;33.50;99751.84;10326805;28;20050;-75
2022/04/19 21:18:41;;;;;;;3.33;1.85;;;;;;;10.79;33.67;99749.81;10338049;28;20751;-76
2022/04/19 21:23:43;;;;;;;6.05;2.15;;;;;;;10.65;33.90;99755.06;10326980;28;20424;-76
2022/04/19 21:28:45;;;;;;;4.68;1.70;;;;;;;10.58;33.90;99762.50;10329046;28;20128;-76
2022/04/19 21:33:47;;;;;;;4.72;1.75;;;;;;;10.59;34.31;99766.78;10320357;28;20050;-76
2022/04/19 21:38:49;;;;;;;9.15;2.00;;;;;;;10.48;34.49;99764.81;10327882;28;20828;-76
2022/04/19 21:43:51;;;;;;;3.70;1.95;;;;;;;10.32;34.47;99764.09;10322778;28;20136;-76
2022/04/19 21:48:53;;;;;;;4.53;1.95;;;;;;;10.21;34.77;99770.91;10321484;28;20054;-75
2022/04/19 21:53:55;;;;;;;6.50;2.00;;;;;;;10.12;34.98;99774.91;10323853;28;20100;-75
2022/04/19 21:58:57;;;;;;;3.13;2.00;;;;;;;10.00;34.91;99777.41;10332626;28;20392;-76
2022/04/19 22:03:59;;;;;;;3.38;1.90;;;;;;;9.96;35.12;99783.75;10317815;28;20060;-75
2022/04/19 22:09:01;;;;;;;5.57;2.25;;;;;;;9.82;35.35;99789.81;10317406;28;20397;-75
2022/04/19 22:14:03;;;;;;;6.63;2.08;;;;;;;9.79;35.51;99789.97;10335345;28;20181;-75
2022/04/19 22:19:06;;;;;;;3.88;1.90;;;;;;;9.83;35.74;99783.63;10324776;28;20125;-75
2022/04/19 22:24:08;;;;;;;3.55;1.95;;;;;;;9.88;36.30;99781.59;10345923;28;20542;-76
2022/04/19 22:29:10;;;;;;;2.90;1.85;;;;;;;9.92;36.05;99788.34;10342831;28;20486;-76
2022/04/19 22:34:12;;;;;;;5.43;2.00;;;;;;;9.85;36.10;99788.78;10334849;28;20142;-75
2022/04/19 22:39:13;;;;;;;3.72;2.00;;;;;;;9.73;36.24;99795.56;10324493;28;21025;-76
2022/04/19 22:44:15;;;;;;;5.38;1.92;;;;;;;9.72;36.84;99796.50;10321784;28;20072;-76
2022/04/19 22:49:17;;;;;;;3.75;2.00;;;;;;;9.67;37.25;99797.69;10330388;28;20622;-76
2022/04/19 22:54:19;;;;;;;5.68;2.10;;;;;;;9.55;37.54;99800.06;10327934;28;20108;-75
2022/04/19 22:59:21;;;;;;;4.40;2.00;;;;;;;9.42;37.89;99806.88;10322219;28;20133;-76
2022/04/19 23:04:23;;;;;;;6.35;1.90;;;;;;;9.25;37.86;99785.28;10336109;28;20050;-76
2022/04/19 23:09:25;;;;;;;6.10;2.03;;;;;;;9.08;38.34;99788.84;10315768;28;20096;-76
2022/04/19 23:14:26;;;;;;;5.10;2.03;;;;;;;8.98;38.79;99794.66;10319345;28;20536;-76
2022/04/19 23:19:28;;;;;;;6.13;2.10;;;;;;;8.95;38.57;99797.44;10328611;28;20140;-76
2022/04/19 23:24:30;;;;;;;3.90;1.90;;;;;;;8.95;39.09;99800.06;10333959;28;20436;-76
2022/04/19 23:29:32;;;;;;;3.78;2.00;;;;;;;8.88;39.88;99809.13;10325040;28;20124;-76
2022/04/19 23:34:34;;;;;;;5.97;2.30;;;;;;;8.75;39.70;99798.53;10332359;28;20098;-76
2022/04/19 23:39:36;;;;;;;3.65;2.10;;;;;;;8.67;39.68;99806.75;10325410;28;20142;-76
2022/04/19 23:44:37;;;;;;;6.72;2.40;;;;;;;8.51;39.74;99803.28;10324902;28;20089;-77
2022/04/19 23:49:39;;;;;;;3.75;2.40;;;;;;;8.35;40.37;99799.81;10334608;28;20137;-76
2022/04/19 23:54:41;;;;;;;5.80;2.80;;;;;;;8.23;40.87;99804.81;10317700;28;20057;-76
2022/04/19 23:59:43;;;;;;;4.80;2.30;;;;;;;8.12;40.81;99796.75;10322398;28;20054;-77
